createdAt,value
2019-03-31T00:06:40.887Z,121.13
2019-03-31T00:16:46.051Z,129.57
2019-03-31T00:26:51.233Z,184.23
2019-03-31T00:36:56.464Z,279.67
2019-03-31T00:47:02.339Z,203.17
2019-03-31T00:57:07.663Z,213.53
2019-03-31T01:07:13.342Z,112.87
2019-03-31T01:17:19.256Z,108.57
2019-03-31T01:27:24.730Z,125.20
2019-03-31T01:37:30.309Z,146.27
2019-03-31T01:47:35.618Z,134.70
2019-03-31T01:57:40.990Z,144.37
2019-03-31T02:07:46.305Z,122.23
2019-03-31T02:17:51.525Z,125.37
2019-03-31T02:27:56.922Z,123.33
2019-03-31T02:38:02.539Z,132.87
2019-03-31T02:48:08.154Z,127.10
2019-03-31T02:58:14.723Z,107.70
2019-03-31T03:08:20.909Z,117.20
2019-03-31T03:18:26.360Z,107.12
2019-03-31T03:28:31.653Z,110.97
2019-03-31T03:38:36.967Z,120.53
2019-03-31T03:48:42.442Z,123.20
2019-03-31T03:58:47.765Z,115.57
2019-03-31T04:08:53.049Z,117.63
2019-03-31T04:18:58.723Z,109.22
2019-03-31T04:29:04.210Z,119.40
2019-03-31T04:39:09.332Z,110.65
2019-03-31T04:49:14.680Z,113.28
2019-03-31T04:59:19.936Z,125.40
2019-03-31T05:09:25.401Z,114.00
2019-03-31T05:19:30.865Z,116.17
2019-03-31T05:29:36.227Z,103.07
2019-03-31T05:39:42.603Z,108.03
2019-03-31T05:49:47.781Z,103.37
2019-03-31T05:59:54.172Z,117.67
2019-03-31T06:09:59.563Z,113.73
2019-03-31T06:20:06.920Z,112.30
2019-03-31T06:30:12.489Z,98.75
2019-03-31T06:40:17.873Z,95.70
2019-03-31T06:50:23.279Z,82.42
2019-03-31T07:00:28.582Z,73.33
2019-03-31T07:10:33.859Z,69.58
2019-03-31T07:20:39.124Z,101.50
2019-03-31T07:30:44.401Z,58.48
2019-03-31T07:40:49.906Z,55.20
2019-03-31T07:50:55.475Z,51.37
2019-03-31T08:01:00.864Z,51.80
2019-03-31T08:11:06.191Z,49.73
2019-03-31T08:21:11.662Z,41.42
2019-03-31T08:31:17.148Z,36.58
2019-03-31T08:41:23.361Z,31.37
2019-03-31T08:51:28.586Z,28.73
2019-03-31T09:01:33.987Z,28.75
2019-03-31T09:11:39.336Z,29.02
2019-03-31T09:21:45.440Z,24.85
2019-03-31T09:31:51.985Z,26.75
2019-03-31T09:41:57.759Z,19.37
2019-03-31T09:52:03.335Z,20.65
2019-03-31T10:02:08.788Z,22.07
2019-03-31T10:12:14.456Z,25.27
2019-03-31T10:22:19.756Z,21.12
2019-03-31T10:32:24.984Z,21.57
2019-03-31T10:42:30.461Z,25.35
2019-03-31T10:52:35.695Z,23.27
2019-03-31T11:02:41.327Z,24.95
2019-03-31T11:12:47.013Z,27.32
2019-03-31T11:23:09.151Z,27.65
2019-03-31T11:33:14.644Z,30.35
2019-03-31T11:43:21.397Z,29.07
2019-03-31T11:53:26.834Z,28.07
2019-03-31T12:03:32.563Z,29.52
2019-03-31T12:13:37.966Z,33.65
2019-03-31T12:23:43.481Z,30.00
2019-03-31T12:33:49.313Z,35.23
2019-03-31T12:43:55.412Z,29.72
2019-03-31T12:54:01.241Z,30.00
2019-03-31T13:04:06.683Z,32.00
2019-03-31T13:14:12.594Z,38.83
2019-03-31T13:24:18.474Z,36.15
2019-03-31T13:34:24.121Z,47.13
2019-03-31T13:44:29.923Z,32.75
2019-03-31T13:54:35.766Z,33.33
2019-03-31T14:04:51.486Z,34.33
2019-03-31T14:14:48.999Z,33.53
2019-03-31T14:24:54.607Z,21.95
2019-03-31T14:35:00.714Z,32.83
2019-03-31T14:45:08.168Z,30.57
2019-03-31T14:55:14.272Z,33.83
2019-03-31T15:05:20.171Z,31.40
2019-03-31T15:15:26.204Z,35.15
2019-03-31T15:25:32.164Z,42.15
2019-03-31T15:35:38.244Z,52.43
2019-03-31T15:45:44.083Z,54.35
2019-03-31T15:55:50.147Z,42.88
2019-03-31T16:05:56.490Z,43.53
2019-03-31T16:16:02.300Z,46.97
2019-03-31T16:26:07.965Z,34.63
2019-03-31T16:36:13.782Z,45.45
2019-03-31T16:46:19.947Z,37.95
2019-03-31T16:56:25.883Z,50.40
2019-03-31T17:06:31.746Z,54.03
2019-03-31T17:16:37.641Z,44.37
2019-03-31T17:26:43.602Z,35.23
2019-03-31T17:36:49.636Z,41.20
2019-03-31T17:46:55.482Z,40.53
2019-03-31T17:57:01.431Z,128.93
2019-03-31T18:07:06.924Z,49.03
2019-03-31T18:17:13.687Z,32.57
2019-03-31T18:27:19.605Z,47.85
2019-03-31T18:37:25.686Z,53.33
2019-03-31T18:47:31.726Z,50.17
2019-03-31T18:57:39.108Z,60.40
2019-03-31T19:08:03.027Z,83.00
2019-03-31T19:18:11.470Z,73.70
2019-03-31T19:28:20.083Z,51.13
2019-03-31T19:38:44.424Z,71.53
2019-03-31T19:48:55.004Z,37.17
2019-03-31T19:59:08.535Z,73.77
2019-03-31T20:09:16.995Z,110.32
2019-03-31T20:19:42.707Z,85.00
2019-03-31T20:29:56.252Z,112.87
2019-03-31T20:40:20.053Z,45.50
2019-03-31T20:50:26.173Z,72.50
2019-03-31T21:00:31.972Z,30.03
2019-03-31T21:10:37.657Z,33.40
2019-03-31T21:20:43.405Z,40.87
2019-03-31T21:30:49.203Z,22.20
2019-03-31T21:40:54.612Z,24.57
2019-03-31T21:51:00.250Z,26.90
2019-03-31T22:01:06.196Z,19.37
2019-03-31T22:11:12.219Z,22.48
2019-03-31T22:21:17.759Z,16.50
2019-03-31T22:31:23.439Z,22.60
2019-03-31T22:41:28.984Z,22.77
2019-03-31T22:51:34.446Z,26.17
2019-03-31T23:01:39.799Z,22.73
2019-03-31T23:11:45.581Z,32.60
2019-03-31T23:21:51.200Z,35.40
2019-03-31T23:31:56.676Z,73.90
2019-03-31T23:42:02.274Z,61.42
2019-03-31T23:52:07.610Z,82.20
